M I D A S
Marine Information and Data Acquisition System
Tripno 1459 of the Zeeleeuw from 2008-04-16 12:02:27 to 2008-04-16 15:10:35
Back to CruiseResearch ActivitiesStationsMapUnderway DataData graphs

EquipmentUnitsComments
TimeDGPSUTC
LatitudeDGPSDM.mWGS84
LongitudeDGPSDM.mWGS84
SpeedMeteo Stationm/sRelative wind speed
DirectionMeteo StationdegRelative wind direction
TemperatureMeteo Stationdeg CelciusAir temperature
PressureMeteo StationPaAtmospheric pressure
HumidityMeteo Station%Relative humidity
Missing or incorrect values are displayed as -999
Metereological data collected by the RV Zeeleeuw from 2008-04-16 07:38:16 to 2008-04-16 15:16:52
Time Latitude Longitude Speed Direction Temperature Pressure Humidity
2008-04-16 07:39 51°13.665 2°55.956 3 331 6.2 102270 71
2008-04-16 07:40 51°13.665 2°55.956 2.8 325 6.3 102270 72
2008-04-16 07:41 51°13.664 2°55.955 3 342 6.3 102270 71
2008-04-16 07:42 51°13.674 2°55.923 1.4 335 6.3 102270 72
2008-04-16 07:43 51°13.685 2°55.844 1.3 355 6.4 102270 71
2008-04-16 07:44 51°13.686 2°55.769 2.8 11 6.3 102260 71
2008-04-16 07:45 51°13.687 2°55.743 2.7 16 6.3 102270 71
2008-04-16 07:46 51°13.707 2°55.742 2 44 6.4 102270 71
2008-04-16 07:47 51°13.771 2°55.686 1.8 35 6.4 102270 70
2008-04-16 07:48 51°13.859 2°55.609 1.8 37 6.4 102270 69
2008-04-16 07:49 51°13.977 2°55.524 2.8 354 6.4 102270 70
2008-04-16 07:50 51°14.071 2°55.449 3.1 29 6.3 102270 69
2008-04-16 07:51 51°14.15 2°55.384 3.2 18 6.3 102270 70
2008-04-16 07:52 51°14.235 2°55.292 1.7 25 6.3 102270 69
2008-04-16 07:53 51°14.313 2°55.157 0.3 256 6.3 102270 69
2008-04-16 07:54 51°14.399 2°55.002 2.3 352 6.5 102270 71
2008-04-16 07:55 51°14.509 2°54.787 2 349 6.6 102260 69
2008-04-16 07:56 51°14.633 2°54.541 2.7 354 6.5 102260 68
2008-04-16 07:57 51°14.75 2°54.273 1.3 345 6.3 102260 69
2008-04-16 07:58 51°14.808 2°53.975 3.4 39 6.3 102260 70
2008-04-16 07:59 51°14.848 2°53.664 4.1 237 6.3 102260 71
2008-04-16 08:00 51°14.884 2°53.351 4.2 32 6.4 102260 70
2008-04-16 08:01 51°14.886 2°53.038 4.5 238 6.5 102250 70
2008-04-16 08:02 51°14.893 2°52.722 3.4 245 6.5 102260 69
2008-04-16 08:03 51°14.909 2°52.41 4.8 243 6.6 102260 69
2008-04-16 08:04 51°14.914 2°52.092 5.1 237 6.6 102250 68
2008-04-16 08:05 51°14.908 2°51.769 7.3 238 6.7 102250 68
2008-04-16 08:06 51°14.866 2°51.466 4.6 33 6.7 102250 67
2008-04-16 08:07 51°14.822 2°51.154 4.7 232 6.7 102240 68
2008-04-16 08:08 51°14.758 2°50.865 6.4 237 6.6 102250 67
2008-04-16 08:09 51°14.667 2°50.682 6.1 239 6.6 102240 67
2008-04-16 08:10 51°14.604 2°50.622 6.2 255 6.6 102250 67
2008-04-16 08:11 51°14.577 2°50.555 3.9 262 6.7 102250 68
2008-04-16 08:12 51°14.555 2°50.493 7.7 251 6.7 102250 68
2008-04-16 08:13 51°14.534 2°50.43 7.1 257 6.8 102240 68
2008-04-16 08:14 51°14.511 2°50.367 7.6 253 6.8 102240 67
2008-04-16 08:15 51°14.484 2°50.294 7.7 254 6.8 102240 67
2008-04-16 08:16 51°14.464 2°50.211 4.9 259 6.8 102240 68
2008-04-16 08:17 51°14.444 2°50.132 3.4 262 6.8 102240 67
2008-04-16 08:18 51°14.424 2°50.056 5.5 261 6.7 102240 67
2008-04-16 08:19 51°14.405 2°49.983 5.3 258 6.8 102250 68
2008-04-16 08:20 51°14.387 2°49.908 4.9 258 6.8 102240 68
2008-04-16 08:21 51°14.369 2°49.834 4.9 260 6.8 102240 68
2008-04-16 08:22 51°14.351 2°49.76 6 257 6.8 102240 68
2008-04-16 08:23 51°14.334 2°49.688 3.7 262 6.9 102240 67
2008-04-16 08:24 51°14.316 2°49.618 4.2 263 6.9 102230 67
2008-04-16 08:25 51°14.299 2°49.546 3.8 262 6.8 102240 67
2008-04-16 08:26 51°14.282 2°49.478 5 262 6.8 102240 67
2008-04-16 08:27 51°14.265 2°49.408 6.6 254 6.9 102240 68
2008-04-16 08:28 51°14.249 2°49.336 5.3 258 6.9 102230 67
2008-04-16 08:29 51°14.232 2°49.264 6.2 260 6.9 102240 67
2008-04-16 08:30 51°14.215 2°49.193 5 260 6.9 102240 67
2008-04-16 08:31 51°14.199 2°49.122 5.4 262 7 102240 67
2008-04-16 08:32 51°14.182 2°49.051 4.5 261 7 102230 66
2008-04-16 08:33 51°14.167 2°48.979 5.6 261 7 102230 67
2008-04-16 08:34 51°14.175 2°48.904 5.3 33 6.9 102230 66
2008-04-16 08:35 51°14.209 2°48.84 2.8 38 6.8 102230 66
2008-04-16 08:36 51°14.267 2°48.831 5.5 24 6.8 102230 65
2008-04-16 08:37 51°14.314 2°48.876 5.7 18 6.7 102230 65
2008-04-16 08:38 51°14.347 2°48.919 6.9 24 6.7 102230 66
2008-04-16 08:39 51°14.379 2°48.964 6.1 7 6.6 102230 66
2008-04-16 08:40 51°14.427 2°49.073 7.9 358 6.7 102220 67
2008-04-16 08:41 51°14.458 2°49.183 7.5 356 6.6 102220 67
2008-04-16 08:42 51°14.479 2°49.263 7 354 6.5 102210 67
2008-04-16 08:43 51°14.502 2°49.327 6.3 -999 6.6 102220 68
2008-04-16 08:44 51°14.528 2°49.383 5.6 3 6.6 102210 67
2008-04-16 08:45 51°14.556 2°49.448 5.8 359 6.6 102210 68
2008-04-16 08:46 51°14.581 2°49.519 6.1 1 6.5 102210 66
2008-04-16 08:47 51°14.603 2°49.594 8.5 353 6.6 102210 67
2008-04-16 08:48 51°14.625 2°49.671 6.9 350 6.5 102220 65
2008-04-16 08:49 51°14.645 2°49.747 7.1 353 6.6 102200 67
2008-04-16 08:50 51°14.666 2°49.825 6.7 358 6.5 102210 67
2008-04-16 08:51 51°14.687 2°49.904 6.6 -999 6.6 102200 67
2008-04-16 08:52 51°14.709 2°49.986 7.6 349 6.6 102200 67
2008-04-16 08:53 51°14.731 2°50.064 5.5 351 6.6 102200 65
2008-04-16 08:53 51°14.732 2°54.92 -999 -999 -999 -999 -999
2008-04-16 08:54 51°14.759 2°50.163 6.7 351 6.6 102210 65
2008-04-16 08:55 51°14.78 2°50.242 7.1 351 6.6 102200 66
2008-04-16 08:56 51°14.802 2°50.324 7.5 355 6.7 102200 66
2008-04-16 08:57 51°14.824 2°50.402 6.8 353 6.7 102200 67
2008-04-16 08:58 51°14.846 2°50.483 5.4 350 6.7 102200 64
2008-04-16 08:59 51°14.867 2°50.564 6.9 356 6.7 102200 64
2008-04-16 09:00 51°14.889 2°50.645 6.8 359 6.7 102200 65
2008-04-16 09:01 51°14.91 2°50.726 5.3 359 6.7 102190 64
2008-04-16 09:02 51°14.931 2°50.807 6.1 351 6.7 102200 65
2008-04-16 09:03 51°14.952 2°50.89 5.9 346 6.8 102200 66
2008-04-16 09:04 51°14.97 2°50.973 7.1 342 6.8 102190 66
2008-04-16 09:05 51°14.985 2°51.051 7.8 341 6.9 102190 64
2008-04-16 09:06 51°15.002 2°51.127 6.7 349 6.9 102190 62
2008-04-16 09:07 51°15.009 2°51.199 7.6 323 7 102190 64
2008-04-16 09:08 51°15.011 2°51.247 5.3 327 7.2 102190 65
2008-04-16 09:09 51°15.016 2°51.286 6.8 24 7.2 102190 63
2008-04-16 09:10 51°15.019 2°51.318 6.2 317 7.3 102180 61
2008-04-16 09:11 51°15.016 2°51.39 7.1 334 7.3 102190 60
2008-04-16 09:12 51°15.009 2°51.645 11 330 7.4 102170 59
2008-04-16 09:13 51°14.978 2°51.989 14.5 335 7.4 102170 59
2008-04-16 09:14 51°14.946 2°52.339 13 336 7.3 102160 57
2008-04-16 09:15 51°14.912 2°52.689 12.5 331 7.3 102160 57
2008-04-16 09:16 51°14.878 2°53.039 11.8 333 7.3 102160 57
2008-04-16 09:17 51°14.805 2°53.367 13.2 331 7.3 102170 57
2008-04-16 09:18 51°14.701 2°53.663 9.5 335 7.3 102160 57
2008-04-16 09:19 51°14.628 2°53.983 11.6 333 7.4 102160 56
2008-04-16 09:20 51°14.56 2°54.316 11.3 335 7.4 102160 56
2008-04-16 09:21 51°14.483 2°54.641 12 326 7.4 102160 56
2008-04-16 09:22 51°14.417 2°54.883 9.6 326 7.5 102170 56
2008-04-16 09:23 51°14.34 2°55.082 8.2 331 7.5 102180 56
2008-04-16 09:24 51°14.254 2°55.243 9.2 322 7.6 102170 57
2008-04-16 09:25 51°14.13 2°55.402 8.1 318 7.7 102170 56
2008-04-16 09:26 51°14.014 2°55.486 7.7 321 7.7 102170 54
2008-04-16 09:27 51°13.915 2°55.56 8.5 330 7.8 102170 55
2008-04-16 09:28 51°13.817 2°55.636 7.4 325 7.7 102170 55
2008-04-16 09:29 51°13.726 2°55.76 7.9 337 7.7 102160 55
2008-04-16 09:30 51°13.684 2°55.879 6.3 335 7.8 102160 55
2008-04-16 09:31 51°13.668 2°55.945 5.7 329 7.9 102180 54
2008-04-16 09:32 51°13.664 2°55.955 3.8 318 8 102180 54
2008-04-16 09:33 51°13.665 2°55.956 2.5 325 8 102180 53
2008-04-16 09:34 51°13.665 2°55.955 4 318 8.1 102180 53
2008-04-16 09:35 51°13.665 2°55.955 3.5 321 8.2 102180 54
2008-04-16 09:36 51°13.665 2°55.955 3.9 321 8.3 102180 52
2008-04-16 09:37 51°13.665 2°55.955 3.6 27 8.3 102170 52
2008-04-16 09:38 51°13.665 2°55.955 3.1 321 8.4 102170 51
2008-04-16 09:39 51°13.665 2°55.955 2.4 320 8.4 102180 51
2008-04-16 09:40 51°13.665 2°55.955 2.6 318 8.5 102170 52
2008-04-16 09:41 51°13.665 2°55.955 2.5 19 8.6 102170 50
2008-04-16 09:42 51°13.665 2°55.956 3.1 27 8.8 102170 50
2008-04-16 09:43 51°13.665 2°55.956 5.6 321 8.9 102170 48
2008-04-16 09:44 51°13.665 2°55.955 3.7 332 8.8 102170 47
2008-04-16 09:45 51°13.665 2°55.955 2.5 22 8.8 102180 47
2008-04-16 09:46 51°13.665 2°55.955 4.5 21 8.9 102180 47
2008-04-16 09:47 51°13.665 2°55.955 5.1 25 9 102170 46
2008-04-16 09:48 51°13.665 2°55.956 3.9 327 9 102170 47
2008-04-16 09:49 51°13.666 2°55.955 3.7 330 9 102170 47
2008-04-16 09:50 51°13.666 2°55.955 2.6 332 8.9 102170 47
2008-04-16 09:51 51°13.666 2°55.954 4.3 19 9 102170 47
2008-04-16 09:52 51°13.665 2°55.954 3.4 325 9 102170 44
2008-04-16 09:53 51°13.665 2°55.955 3.9 21 9.1 102170 43
2008-04-16 09:54 51°13.665 2°55.955 3.7 321 9.2 102170 43
2008-04-16 09:55 51°13.665 2°55.955 4.4 28 9.3 102170 43
2008-04-16 09:56 51°13.665 2°55.955 3.6 321 9.3 102180 43
2008-04-16 09:57 51°13.665 2°55.955 2.9 327 9.2 102180 43
2008-04-16 09:58 51°13.667 2°55.956 3.4 321 9.2 102180 42
2008-04-16 09:59 51°13.666 2°55.955 4.3 20 9.2 102180 43
2008-04-16 10:00 51°13.666 2°55.956 4 25 9.2 102180 43
2008-04-16 10:01 51°13.666 2°55.956 3.7 21 9.3 102180 43
2008-04-16 10:02 51°13.667 2°55.956 3.3 334 9.4 102170 43
2008-04-16 10:03 51°13.666 2°55.956 3 324 9.2 102170 44
2008-04-16 10:04 51°13.666 2°55.956 3.8 22 9.2 102170 46
2008-04-16 10:05 51°13.666 2°55.956 4.2 318 9.3 102180 45
2008-04-16 10:06 51°13.666 2°55.955 3.2 317 9.4 102180 46
2008-04-16 10:07 51°13.666 2°55.955 2.7 27 9.3 102170 45
2008-04-16 10:08 51°13.666 2°55.955 1.7 323 9.3 102170 45
2008-04-16 10:09 51°13.665 2°55.955 3.4 332 9.4 102170 45
2008-04-16 10:10 51°13.666 2°55.955 4.5 319 9.5 102170 45
2008-04-16 10:11 51°13.665 2°55.953 3.5 326 9.4 102170 44
2008-04-16 10:12 51°13.666 2°55.954 3.3 331 9.3 102170 44
2008-04-16 10:13 51°13.666 2°55.954 2.7 331 9.2 102170 44
2008-04-16 10:14 51°13.666 2°55.954 3.6 21 9.4 102170 45
2008-04-16 10:15 51°13.666 2°55.954 6 25 9.5 102170 43
2008-04-16 10:16 51°13.666 2°55.954 4.6 28 9.5 102170 43
2008-04-16 10:17 51°13.666 2°55.955 5 25 9.4 102170 43
2008-04-16 10:18 51°13.665 2°55.954 3.5 25 9.3 102170 43
2008-04-16 10:19 51°13.665 2°55.954 2.3 27 9.3 102170 43
2008-04-16 10:20 51°13.665 2°55.954 2.7 24 9.3 102170 43
2008-04-16 10:21 51°13.665 2°55.954 2.9 24 9.4 102170 45
2008-04-16 10:22 51°13.665 2°55.954 4 317 9.5 102170 44
2008-04-16 10:23 51°13.665 2°55.954 5.2 20 9.4 102170 44
2008-04-16 10:24 51°13.665 2°55.955 2.4 20 9.4 102170 45
2008-04-16 10:25 51°13.665 2°55.954 3.8 22 9.3 102170 45
2008-04-16 10:26 51°13.666 2°55.954 2.1 22 9.5 102160 44
2008-04-16 10:27 51°13.666 2°55.953 2.3 18 9.5 102160 44
2008-04-16 10:28 51°13.666 2°55.953 3.9 27 9.6 102160 44
2008-04-16 10:29 51°13.666 2°55.954 3.3 318 9.7 102160 44
2008-04-16 10:30 51°13.666 2°55.953 2.8 317 9.8 102160 45
2008-04-16 10:31 51°13.665 2°55.953 3.7 330 9.9 102160 45
2008-04-16 10:32 51°13.665 2°55.953 4.6 330 9.7 102160 43
2008-04-16 10:33 51°13.665 2°55.953 2.3 337 9.5 102160 43
2008-04-16 10:34 51°13.665 2°55.953 2.3 19 9.4 102150 44
2008-04-16 10:35 51°13.665 2°55.953 2.9 327 9.6 102150 45
2008-04-16 10:36 51°13.665 2°55.953 3 321 9.5 102150 45
2008-04-16 10:37 51°13.666 2°55.953 2.4 29 9.4 102150 45
2008-04-16 10:38 51°13.666 2°55.953 4 324 9.5 102150 46
2008-04-16 10:39 51°13.666 2°55.954 5.5 19 9.6 102150 47
2008-04-16 10:40 51°13.666 2°55.954 3 323 9.7 102150 44
2008-04-16 10:41 51°13.666 2°55.955 1.9 334 9.8 102140 45
2008-04-16 10:42 51°13.666 2°55.954 3.8 319 9.9 102140 45
2008-04-16 10:43 51°13.666 2°55.955 5.2 326 10.1 102150 46
2008-04-16 10:44 51°13.666 2°55.955 3.9 20 10 102140 45
2008-04-16 10:45 51°13.666 2°55.955 4.2 25 10 102150 45
2008-04-16 10:46 51°13.666 2°55.955 5.4 26 10.1 102140 44
2008-04-16 10:47 51°13.666 2°55.955 4.4 25 9.8 102140 44
2008-04-16 10:48 51°13.667 2°55.955 3.1 28 9.7 102140 44
2008-04-16 10:49 51°13.667 2°55.955 3.9 316 9.6 102140 45
2008-04-16 10:50 51°13.667 2°55.955 3.9 321 9.5 102140 44
2008-04-16 10:51 51°13.667 2°55.955 2.5 327 9.6 102140 45
2008-04-16 10:52 51°13.667 2°55.955 3.5 317 9.7 102140 43
2008-04-16 10:53 51°13.668 2°55.955 3 326 9.8 102140 43
2008-04-16 10:54 51°13.667 2°55.955 2.9 320 10.1 102140 44
2008-04-16 10:55 51°13.667 2°55.955 3 333 10.2 102130 42
2008-04-16 10:56 51°13.666 2°55.955 4.4 328 10.1 102130 43
2008-04-16 10:57 51°13.667 2°55.955 4.7 321 9.9 102130 44
2008-04-16 10:58 51°13.667 2°55.955 4.2 28 9.8 102140 44
2008-04-16 10:59 51°13.667 2°55.955 5 20 9.7 102130 44
2008-04-16 11:00 51°13.667 2°55.955 3.7 24 9.7 102130 44
2008-04-16 11:01 51°13.666 2°55.955 3.2 20 9.7 102140 44
2008-04-16 11:02 51°13.665 2°55.955 2.3 27 9.6 102130 43
2008-04-16 11:03 51°13.666 2°55.955 3.1 22 9.6 102130 44
2008-04-16 11:04 51°13.665 2°55.954 5.2 21 9.6 102130 44
2008-04-16 11:05 51°13.666 2°55.955 6.7 26 9.6 102130 44
2008-04-16 11:06 51°13.666 2°55.955 2.7 319 9.6 102130 44
2008-04-16 11:07 51°13.667 2°55.955 3.3 23 9.9 102130 45
2008-04-16 11:08 51°13.666 2°55.954 3.7 328 10 102130 43
2008-04-16 11:09 51°13.666 2°55.954 1.4 22 9.9 102130 43
2008-04-16 11:10 51°13.667 2°55.954 3.6 317 9.9 102130 43
2008-04-16 11:11 51°13.667 2°55.954 4.1 21 9.8 102130 44
2008-04-16 11:12 51°13.666 2°55.954 5.1 22 9.8 102120 44
2008-04-16 11:13 51°13.667 2°55.955 3.2 324 9.7 102120 44
2008-04-16 11:14 51°13.666 2°55.955 4.3 321 9.8 102120 44
2008-04-16 11:15 51°13.666 2°55.954 2.9 24 9.8 102120 44
2008-04-16 11:16 51°13.666 2°55.953 2.3 323 9.8 102120 43
2008-04-16 11:17 51°13.665 2°55.953 2.8 22 9.9 102120 42
2008-04-16 11:18 51°13.665 2°55.953 2.4 19 10 102120 44
2008-04-16 11:19 51°13.665 2°55.953 3.3 22 10.1 102120 43
2008-04-16 11:20 51°13.666 2°55.953 3 26 10.1 102110 43
2008-04-16 11:21 51°13.665 2°55.954 3.5 26 10.2 102120 42
2008-04-16 11:22 51°13.665 2°55.954 4.3 19 10.1 102110 41
2008-04-16 11:23 51°13.665 2°55.954 2.1 321 9.9 102120 42
2008-04-16 11:24 51°13.665 2°55.954 2.1 25 9.9 102120 43
2008-04-16 11:25 51°13.665 2°55.954 4.1 259 10 102120 43
2008-04-16 11:26 51°13.665 2°55.955 4.1 25 10.1 102120 41
2008-04-16 11:27 51°13.665 2°55.954 2.4 27 10.1 102110 42
2008-04-16 11:28 51°13.665 2°55.955 2.2 26 10.3 102120 41
2008-04-16 11:29 51°13.665 2°55.955 2.7 25 10.4 102110 41
2008-04-16 11:30 51°13.665 2°55.954 2.4 20 10.5 102110 41
2008-04-16 11:31 51°13.665 2°55.954 2.7 26 10.7 102120 39
2008-04-16 11:32 51°13.665 2°55.954 1.6 20 10.8 102120 38
2008-04-16 11:33 51°13.665 2°55.954 2.3 29 10.7 102110 38
2008-04-16 11:34 51°13.665 2°55.954 2.1 316 10.6 102110 39
2008-04-16 11:35 51°13.665 2°55.954 1 21 10.4 102110 40
2008-04-16 11:36 51°13.665 2°55.954 2.3 27 10.3 102110 41
2008-04-16 11:37 51°13.665 2°55.954 4.8 27 10.3 102110 41
2008-04-16 11:38 51°13.665 2°55.954 3.2 245 10.1 102100 41
2008-04-16 11:39 51°13.665 2°55.954 4.7 27 10 102110 42
2008-04-16 11:40 51°13.665 2°55.955 4 23 9.8 102110 42
2008-04-16 11:41 51°13.665 2°55.954 3.1 25 9.7 102110 43
2008-04-16 11:42 51°13.665 2°55.954 2 27 9.7 102100 42
2008-04-16 11:43 51°13.665 2°55.953 1.7 25 9.8 102100 42
2008-04-16 11:44 51°13.665 2°55.953 1.6 26 9.9 102100 43
2008-04-16 11:45 51°13.665 2°55.954 1.3 24 10.1 102100 43
2008-04-16 11:46 51°13.665 2°55.955 2 21 10.3 102090 43
2008-04-16 11:47 51°13.665 2°55.955 2.2 27 10.4 102090 45
2008-04-16 11:48 51°13.665 2°55.954 2.6 26 10.6 102100 44
2008-04-16 11:49 51°13.665 2°55.954 4.8 20 10.7 102100 42
2008-04-16 11:50 51°13.666 2°55.954 0.8 21 10.8 102100 42
2008-04-16 11:51 51°13.665 2°55.954 1.7 18 10.7 102090 43
2008-04-16 11:52 51°13.665 2°55.954 1.4 22 10.6 102090 45
2008-04-16 11:53 51°13.665 2°55.954 4.9 25 10.6 102080 42
2008-04-16 11:54 51°13.666 2°55.955 2.7 25 10.7 102090 40
2008-04-16 11:55 51°13.665 2°55.953 4.8 319 10.8 102080 40
2008-04-16 11:56 51°13.665 2°55.955 3.7 23 10.9 102080 40
2008-04-16 11:57 51°13.665 2°55.955 3.4 320 10.8 102080 39
2008-04-16 11:58 51°13.665 2°55.955 3.3 317 10.7 102080 39
2008-04-16 11:59 51°13.665 2°55.955 2.9 320 10.6 102080 39
2008-04-16 12:00 51°13.665 2°55.955 4.1 326 10.6 102080 41
2008-04-16 12:01 51°13.665 2°55.956 3.6 21 10.5 102080 43
2008-04-16 12:02 51°13.664 2°55.956 3.7 20 10.6 102080 42
2008-04-16 12:03 51°13.677 2°55.91 3.4 317 10.6 102080 43
2008-04-16 12:04 51°13.693 2°55.819 2.6 34 10.5 102080 43
2008-04-16 12:05 51°13.697 2°55.734 3.8 22 10.4 102080 43
2008-04-16 12:06 51°13.706 2°55.736 5.6 342 10.3 102070 43
2008-04-16 12:07 51°13.708 2°55.715 5.5 353 10 102080 44
2008-04-16 12:08 51°13.774 2°55.663 5.1 347 9.6 102070 46
2008-04-16 12:09 51°13.829 2°55.632 8 341 9.3 102070 48
2008-04-16 12:10 51°13.869 2°55.628 7 338 9 102060 49
2008-04-16 12:11 51°13.9 2°55.633 5.6 335 8.9 102070 47
2008-04-16 12:12 51°13.918 2°55.635 5.8 343 8.9 102070 52
2008-04-16 12:13 51°13.93 2°55.641 4.2 337 9 102070 52
2008-04-16 12:14 51°13.938 2°55.646 5.1 334 9 102070 53
2008-04-16 12:15 51°13.947 2°55.65 4.4 345 9.1 102060 50
2008-04-16 12:16 51°13.961 2°55.651 5.5 -999 8.9 102070 52
2008-04-16 12:17 51°13.944 2°55.658 3.6 7 8.9 102060 51
2008-04-16 12:18 51°13.947 2°55.648 6.1 12 8.7 102060 51
2008-04-16 12:19 51°14.011 2°55.566 8.1 355 8.7 102070 53
2008-04-16 12:20 51°14.119 2°55.439 7.4 355 8.6 102060 55
2008-04-16 12:21 51°14.23 2°55.308 8.7 1 8.5 102070 56
2008-04-16 12:22 51°14.314 2°55.146 7.1 6 8.3 102060 58
2008-04-16 12:23 51°14.385 2°54.941 7.5 8 8.2 102060 60
2008-04-16 12:24 51°14.415 2°54.661 4.8 10 8.1 102060 60
2008-04-16 12:25 51°14.371 2°54.35 6.1 13 8 102070 59
2008-04-16 12:26 51°14.324 2°54.037 5.5 15 8 102070 60
2008-04-16 12:27 51°14.271 2°53.725 4.9 9 8 102070 59
2008-04-16 12:28 51°14.223 2°53.412 4.9 19 8 102070 60
2008-04-16 12:29 51°14.17 2°53.102 4.4 24 8 102070 60
2008-04-16 12:30 51°14.09 2°52.81 4.3 29 8 102070 60
2008-04-16 12:31 51°13.994 2°52.532 2.5 27 8 102070 58
2008-04-16 12:32 51°13.89 2°52.256 3.1 42 8.1 102070 58
2008-04-16 12:33 51°13.792 2°51.978 2.4 38 8.1 102070 57
2008-04-16 12:34 51°13.685 2°51.708 2 39 8.2 102070 59
2008-04-16 12:35 51°13.583 2°51.431 3.4 28 8.3 102070 58
2008-04-16 12:36 51°13.479 2°51.158 2.3 43 8.2 102060 57
2008-04-16 12:37 51°13.375 2°50.884 3.5 37 8.3 102060 58
2008-04-16 12:38 51°13.269 2°50.611 2.5 42 8.3 102060 58
2008-04-16 12:39 51°13.16 2°50.34 3.2 32 8.3 102060 56
2008-04-16 12:40 51°13.062 2°50.056 2.8 33 8.3 102060 57
2008-04-16 12:41 51°12.96 2°49.775 2.5 32 8.3 102060 57
2008-04-16 12:42 51°12.858 2°49.493 2.5 44 8.3 102060 58
2008-04-16 12:43 51°12.753 2°49.217 2.7 26 8.3 102060 58
2008-04-16 12:44 51°12.65 2°48.936 2.7 38 8.4 102050 58
2008-04-16 12:45 51°12.552 2°48.653 3.4 28 8.4 102050 58
2008-04-16 12:46 51°12.458 2°48.363 3.4 33 8.3 102050 56
2008-04-16 12:47 51°12.363 2°48.075 3.2 27 8.4 102050 59
2008-04-16 12:48 51°12.275 2°47.78 4.1 30 8.4 102050 59
2008-04-16 12:49 51°12.19 2°47.484 3.8 18 8.3 102060 58
2008-04-16 12:50 51°12.105 2°47.187 4.1 32 8.3 102050 60
2008-04-16 12:51 51°12.021 2°46.889 4.1 31 8.2 102050 60
2008-04-16 12:52 51°11.938 2°46.59 3.5 37 8.2 102050 59
2008-04-16 12:53 51°11.851 2°46.293 3 27 8.2 102050 59
2008-04-16 12:54 51°11.763 2°45.997 3.2 30 8.1 102040 60
2008-04-16 12:55 51°11.681 2°45.695 3.3 30 8.1 102050 59
2008-04-16 12:56 51°11.598 2°45.393 3.5 32 8.1 102050 59
2008-04-16 12:57 51°11.513 2°45.092 3.3 35 8.1 102040 60
2008-04-16 12:58 51°11.424 2°44.795 3.1 17 8.1 102050 61
2008-04-16 12:59 51°11.339 2°44.493 2.8 27 8.1 102040 59
2008-04-16 13:00 51°11.257 2°44.189 3.4 20 8.1 102050 60
2008-04-16 13:01 51°11.172 2°43.886 3.3 24 8.2 102050 61
2008-04-16 13:02 51°11.088 2°43.582 3.6 19 8.2 102040 59
2008-04-16 13:03 51°10.998 2°43.283 4.4 11 8.2 102040 58
2008-04-16 13:04 51°10.913 2°42.979 2.6 27 8.2 102040 60
2008-04-16 13:05 51°10.829 2°42.675 3.4 27 8.2 102040 58
2008-04-16 13:06 51°10.74 2°42.374 3 24 8.3 102040 60
2008-04-16 13:07 51°10.653 2°42.07 3.9 17 8.3 102040 60
2008-04-16 13:08 51°10.571 2°41.762 3.4 28 8.3 102040 59
2008-04-16 13:09 51°10.487 2°41.456 2.4 30 8.3 102040 57
2008-04-16 13:10 51°10.401 2°41.151 2.9 27 8.3 102040 59
2008-04-16 13:11 51°10.316 2°40.847 3 28 8.3 102040 58
2008-04-16 13:12 51°10.233 2°40.539 3.7 27 8.3 102030 58
2008-04-16 13:13 51°10.159 2°40.267 4.5 41 8.3 102030 58
2008-04-16 13:14 51°10.141 2°40.146 8.6 31 8.2 102020 56
2008-04-16 13:15 51°10.133 2°40.13 8.4 30 8.2 102020 58
2008-04-16 13:16 51°10.124 2°40.114 9.5 32 8.3 102010 60
2008-04-16 13:17 51°10.116 2°40.094 7.7 31 8.2 102010 57
2008-04-16 13:18 51°10.107 2°40.074 7.8 29 8.3 102010 61
2008-04-16 13:19 51°10.099 2°40.053 8.8 29 8.2 102010 59
2008-04-16 13:20 51°10.092 2°40.031 7.3 26 8.2 102010 57
2008-04-16 13:21 51°10.085 2°40.009 7.2 23 8.3 102010 60
2008-04-16 13:22 51°10.077 2°39.986 7.4 24 8.3 102000 60
2008-04-16 13:23 51°10.069 2°39.961 6.3 24 8.3 102000 59
2008-04-16 13:24 51°10.094 2°39.919 8.9 352 8.4 102000 62
2008-04-16 13:25 51°10.134 2°39.938 9.7 323 8.3 101990 60
2008-04-16 13:26 51°10.116 2°40.006 10.3 282 8.3 101980 59
2008-04-16 13:27 51°10.052 2°40.005 7.9 25 8.4 102000 62
2008-04-16 13:28 51°9.993 2°39.949 5.4 26 8.4 102000 58
2008-04-16 13:29 51°9.952 2°39.873 3.6 18 8.4 102010 61
2008-04-16 13:30 51°9.915 2°39.803 3.3 27 8.9 102000 56
2008-04-16 13:31 51°9.885 2°39.729 4.8 23 9.3 102000 54
2008-04-16 13:32 51°9.859 2°39.654 6.5 24 8.9 102000 55
2008-04-16 13:33 51°9.832 2°39.58 6.9 20 8.7 102000 57
2008-04-16 13:34 51°9.805 2°39.506 6.4 20 8.4 102000 57
2008-04-16 13:35 51°9.778 2°39.431 6.9 22 8.4 101990 60
2008-04-16 13:36 51°9.753 2°39.355 6.7 27 8.3 101990 58
2008-04-16 13:37 51°9.729 2°39.279 7.6 20 8.2 101990 61
2008-04-16 13:38 51°9.704 2°39.203 6.5 28 8.2 101990 62
2008-04-16 13:39 51°9.679 2°39.128 7.3 20 8.1 101990 60
2008-04-16 13:40 51°9.657 2°39.049 7.2 76 8.1 101990 58
2008-04-16 13:41 51°9.638 2°38.97 6.7 42 8.2 101990 63
2008-04-16 13:42 51°9.62 2°38.89 8.3 44 8.1 101990 61
2008-04-16 13:43 51°9.602 2°38.81 8.2 25 8.1 101990 60
2008-04-16 13:44 51°9.583 2°38.731 7.7 40 8.1 101990 62
2008-04-16 13:45 51°9.561 2°38.652 6.7 43 8 101990 62
2008-04-16 13:46 51°9.541 2°38.573 7.9 80 8 101990 62
2008-04-16 13:47 51°9.521 2°38.493 7 34 8 101980 63
2008-04-16 13:48 51°9.503 2°38.414 7.8 42 8 101980 64
2008-04-16 13:49 51°9.484 2°38.335 8.1 41 7.9 101980 62
2008-04-16 13:50 51°9.466 2°38.255 7.9 41 8 101980 64
2008-04-16 13:51 51°9.447 2°38.175 9.4 42 8 101980 63
2008-04-16 13:52 51°9.431 2°38.094 7.7 43 8 101970 63
2008-04-16 13:53 51°9.417 2°38.014 8.3 41 7.9 101980 62
2008-04-16 13:54 51°9.404 2°37.937 8.4 40 7.9 101950 63
2008-04-16 13:55 51°9.398 2°37.862 9.3 31 8 101950 63
2008-04-16 13:56 51°9.404 2°37.797 9.6 14 8 101970 64
2008-04-16 13:57 51°9.406 2°37.743 9.6 13 8 101960 64
2008-04-16 13:58 51°9.405 2°37.696 8.2 17 7.9 101950 62
2008-04-16 13:59 51°9.402 2°37.653 8.8 14 8 101960 66
2008-04-16 14:00 51°9.398 2°37.61 9 10 8 101950 63
2008-04-16 14:01 51°9.422 2°37.564 8.8 346 8 101950 63
2008-04-16 14:02 51°9.459 2°37.597 12.1 321 8 101940 63
2008-04-16 14:03 51°9.499 2°37.775 13.7 320 8.1 101940 63
2008-04-16 14:04 51°9.561 2°38.032 13.8 323 8.1 101940 63
2008-04-16 14:05 51°9.628 2°38.304 17.5 323 8.2 101940 62
2008-04-16 14:06 51°9.69 2°38.579 14.2 323 8.2 101930 62
2008-04-16 14:07 51°9.758 2°38.849 13.7 322 8.2 101930 61
2008-04-16 14:08 51°9.836 2°39.111 16.2 324 8.2 101930 61
2008-04-16 14:09 51°9.905 2°39.378 15.6 322 8.3 101930 60
2008-04-16 14:10 51°9.978 2°39.644 15.6 321 8.3 101920 62
2008-04-16 14:11 51°10.054 2°39.908 16.1 322 8.3 101920 60
2008-04-16 14:12 51°10.129 2°40.172 13.1 322 8.3 101930 61
2008-04-16 14:13 51°10.201 2°40.439 15.9 321 8.3 101920 61
2008-04-16 14:14 51°10.273 2°40.707 16.6 324 8.3 101920 62
2008-04-16 14:15 51°10.348 2°40.972 16.4 320 8.3 101920 60
2008-04-16 14:16 51°10.422 2°41.238 14.1 322 8.3 101920 62
2008-04-16 14:17 51°10.497 2°41.503 16.3 324 8.3 101920 61
2008-04-16 14:18 51°10.563 2°41.773 13.6 322 8.3 101920 61
2008-04-16 14:19 51°10.632 2°42.041 14.6 320 8.3 101910 60
2008-04-16 14:20 51°10.706 2°42.307 16.3 318 8.3 101910 61
2008-04-16 14:21 51°10.78 2°42.571 15.7 323 8.3 101910 60
2008-04-16 14:22 51°10.851 2°42.838 15.3 322 8.3 101910 61
2008-04-16 14:23 51°10.923 2°43.104 14.8 320 8.3 101920 61
2008-04-16 14:24 51°10.998 2°43.366 14.7 320 8.3 101900 61
2008-04-16 14:25 51°11.072 2°43.629 18.4 320 8.3 101900 62
2008-04-16 14:26 51°11.141 2°43.896 13.9 320 8.2 101910 62
2008-04-16 14:27 51°11.211 2°44.164 14.7 322 8.2 101900 63
2008-04-16 14:28 51°11.282 2°44.431 16 323 8.2 101910 61
2008-04-16 14:29 51°11.357 2°44.693 13.5 321 8.2 101900 62
2008-04-16 14:30 51°11.434 2°44.954 16.7 321 8.3 101910 64
2008-04-16 14:31 51°11.508 2°45.216 17.9 321 8.3 101900 64
2008-04-16 14:32 51°11.583 2°45.478 14.7 322 8.3 101900 63
2008-04-16 14:33 51°11.657 2°45.74 13.9 321 8.2 101900 62
2008-04-16 14:34 51°11.732 2°46.002 13.9 322 8.3 101900 63
2008-04-16 14:35 51°11.805 2°46.264 14.1 321 8.2 101890 62
2008-04-16 14:36 51°11.878 2°46.526 15.7 322 8.3 101910 64
2008-04-16 14:37 51°11.952 2°46.786 15.7 286 8.2 101890 63
2008-04-16 14:38 51°12.025 2°47.046 14 320 8.2 101890 62
2008-04-16 14:39 51°12.101 2°47.305 15.8 325 8.2 101890 63
2008-04-16 14:40 51°12.184 2°47.558 13.6 323 8.2 101900 63
2008-04-16 14:41 51°12.268 2°47.811 16 323 8.2 101900 64
2008-04-16 14:42 51°12.355 2°48.062 14.9 323 8.2 101890 64
2008-04-16 14:43 51°12.445 2°48.312 15.8 324 8.2 101900 64
2008-04-16 14:44 51°12.539 2°48.556 16.7 325 8.2 101910 64
2008-04-16 14:45 51°12.627 2°48.805 16.5 323 8.2 101890 64
2008-04-16 14:46 51°12.715 2°49.053 14 324 8.2 101890 64
2008-04-16 14:47 51°12.805 2°49.297 13.9 322 8.2 101890 63
2008-04-16 14:48 51°12.896 2°49.54 16.1 323 8.2 101900 64
2008-04-16 14:49 51°12.986 2°49.783 16.4 323 8.1 101900 62
2008-04-16 14:50 51°13.076 2°50.025 16.1 323 8.2 101900 63
2008-04-16 14:51 51°13.165 2°50.267 15.2 284 8.3 101890 64
2008-04-16 14:52 51°13.254 2°50.509 14 324 8.3 101880 63
2008-04-16 14:53 51°13.343 2°50.751 15.9 324 8.3 101890 63
2008-04-16 14:54 51°13.432 2°50.993 14.9 323 8.2 101890 63
2008-04-16 14:55 51°13.52 2°51.234 16.5 321 8.2 101890 63
2008-04-16 14:56 51°13.605 2°51.472 15.7 321 8.2 101890 63
2008-04-16 14:57 51°13.69 2°51.713 16.4 324 8.2 101890 64
2008-04-16 14:58 51°13.77 2°51.956 14.5 322 8.2 101900 65
2008-04-16 14:59 51°13.855 2°52.194 16.6 323 8.2 101890 64
2008-04-16 15:00 51°13.937 2°52.436 16.8 323 8.2 101890 63
2008-04-16 15:01 51°14.019 2°52.679 13.4 323 8.1 101890 63
2008-04-16 15:02 51°14.1 2°52.922 13.3 323 8.2 101880 64
2008-04-16 15:03 51°14.18 2°53.168 15.7 322 8.2 101890 63
2008-04-16 15:04 51°14.251 2°53.417 14.9 319 8.1 101880 62
2008-04-16 15:05 51°14.296 2°53.683 12 317 8.2 101890 64
2008-04-16 15:06 51°14.329 2°53.958 13.1 317 8.1 101880 62
2008-04-16 15:07 51°14.354 2°54.234 12 318 8.1 101870 62
2008-04-16 15:08 51°14.387 2°54.509 12.4 315 8.1 101870 62
2008-04-16 15:09 51°14.396 2°54.761 14.2 23 8.1 101870 62
2008-04-16 15:10 51°14.365 2°55.002 10.5 24 8.1 101880 62
2008-04-16 15:11 51°14.285 2°55.212 9.2 245 8.1 101890 63
2008-04-16 15:12 51°14.172 2°55.366 6.4 254 8.1 101900 63
2008-04-16 15:13 51°14.072 2°55.455 3.7 24 8.2 101910 63
2008-04-16 15:14 51°13.984 2°55.516 5.3 259 8.4 101910 63
2008-04-16 15:15 51°13.9 2°55.575 4.6 263 8.4 101910 63
2008-04-16 15:16 51°13.824 2°55.63 4.7 259 8.4 101910 60